Palestine, TX

7:49 PM CDT on September 30, 2014 (GMT -0500)
Crockett | Change Station
CLOSE
Current Station
Airport
Location: Crockett,
Elevation: 348 ft
Nearby Weather Stations

Elev 348 ft 31.31 °N, 95.40 °W | Updated 19 minutes ago

Clear
Clear
84 °F
Feels Like 92 °F
N
6
Wind Variable Wind from ESE

Today
High -- | Low -- °F
--% Chance of Precip.
Yesterday
High -- | Low -- °F
Precip. -- in
7:15 AM 7:08 PM
Waxing Crescent, 41% visible
Pressure 29.83 in
Visibility 10.0 miles
Clouds Clear
Heat Index 92 °F
Dew Point 75 °F
Humidity 74%
Rainfall 0.00 in
Snow Depth Not available.
UV 0 out of 12
Pollen 9.00 out of 12
Air Quality Not available.
Flu Activity Not available.
METAR KDKR 010030Z AUTO 11005KT 10SM CLR 29/24 A2983 RMK AO2

More Conditions Fewer Conditions

Pressure 29.83 in
Visibility 10.0 miles
Clouds Clear
Heat Index 92 °F
Dew Point 75 °F
Humidity 74%
Rainfall 0.00 in
Snow Depth Not available.
UV 0 out of 12
Pollen 9.00 out of 12
Air Quality Not available.
Flu Activity Not available.
METAR KDKR 010030Z AUTO 11005KT 10SM CLR 29/24 A2983 RMK AO2

More Conditions Fewer Conditions

10-Day Weather Forecast

Almanac

Astronomy

Sep. 30, 2014 Rise Set
Actual Time 7:15 AM CDT 7:08 PM CDT
Civil Twilight 6:51 AM CDT 7:32 PM CDT
Nautical Twilight 6:23 AM CDT 8:01 PM CDT
Astronomical Twilight 5:54 AM CDT 8:29 PM CDT
Moon 1:08 PM CDT (9/30) 11:55 PM CDT (9/30)
Length of Visible Light 12h 41m
Length of Day
11h 52m
Tomorrow will be 1m 56s shorter.
Waxing Crescent, 41% of the Moon is Illuminated
Today
Waxing Crescent
Oct 1
First Quarter
Oct 8
Full
Oct 15
Last Quarter
Oct 23
New

Today's Extremes

State Highs State Lows

Community

WunderPhotos

Upload Photos

1,757,801 photos uploaded!

Nearby

Snow Depth

Station Depth Elevation
No new snow has been reported.

Earthquake Activity

City Distance Mag. Time & Date
No recent earthquake activity has been reported nearby.
Minimum magnitude displayed is 2.5.

Coastal Water Temperatures

Place Temperature
No Stations Reporting

Nearby Weather Stations